LFMI

Istres Le Tubé / Istres Air Base (BA 125) Airport

Istres/Le Tubé, France
METAR LFMI 251530Z AUTO 18008KT 150V270 CAVOK 30/12 Q1014 NOSIG
Observed Flight Rules
Jun-25 @ 15:30 UTC (15 minutes ago) Visual Flight Rules
Wind Visibility Clouds
180° at 8 knots 10,000+ meters
  • Clear skies
Temperatures Readings
Current 30°C / 86°F
Dewpoint 12°C / 54°F
Humidity 33%
Altimeter 29.94" Hg
Pressure 1014 hPa
Elevation 24
METAR LFMI 251530Z AUTO 18008KT 150V270 CAVOK 30/12 Q1014 NOSIG
Observed Flight Rules
Jun-25 @ 15:30 UTC
(15 minutes ago)
VFR
Wind Visibility
180° at 8 knots 10,000+ meters
Clouds
  • Clear skies
Temperature Dewpoint
30°C / 86°F 12°C / 54°F
Humidity Altimeter Pressure
33% 29.94" Hg 1014 hPa